sensor_id;sensor_type;location;lat;lon;timestamp;pressure;altitude;pressure_sealevel;temperature;humidity
22753;BME280;11543;43.144;24.684;2024-01-30T00:02:14;101212.84;;;4.50;69.75
22753;BME280;11543;43.144;24.684;2024-01-30T00:04:40;101213.47;;;4.57;69.42
22753;BME280;11543;43.144;24.684;2024-01-30T00:07:05;101231.72;;;4.66;69.38
22753;BME280;11543;43.144;24.684;2024-01-30T00:09:31;101216.75;;;4.63;69.23
22753;BME280;11543;43.144;24.684;2024-01-30T00:11:57;101196.72;;;4.55;68.76
22753;BME280;11543;43.144;24.684;2024-01-30T00:14:22;101232.88;;;4.82;68.87
22753;BME280;11543;43.144;24.684;2024-01-30T00:16:48;101250.44;;;4.86;68.95
22753;BME280;11543;43.144;24.684;2024-01-30T00:19:14;101225.00;;;4.79;68.37
22753;BME280;11543;43.144;24.684;2024-01-30T00:21:39;101222.34;;;4.79;68.56
22753;BME280;11543;43.144;24.684;2024-01-30T00:24:05;101242.34;;;4.89;68.21
22753;BME280;11543;43.144;24.684;2024-01-30T00:26:30;101233.22;;;4.73;68.04
22753;BME280;11543;43.144;24.684;2024-01-30T00:28:56;101230.13;;;4.62;68.39
22753;BME280;11543;43.144;24.684;2024-01-30T00:31:21;101234.06;;;4.52;68.78
22753;BME280;11543;43.144;24.684;2024-01-30T00:33:47;101218.75;;;4.33;68.83
22753;BME280;11543;43.144;24.684;2024-01-30T00:36:12;101250.13;;;4.48;69.29
22753;BME280;11543;43.144;24.684;2024-01-30T00:38:38;101253.47;;;4.54;69.52
22753;BME280;11543;43.144;24.684;2024-01-30T00:41:03;101231.41;;;4.52;69.39
22753;BME280;11543;43.144;24.684;2024-01-30T00:43:30;101217.41;;;4.46;69.41
22753;BME280;11543;43.144;24.684;2024-01-30T00:45:56;101231.41;;;4.52;69.46
22753;BME280;11543;43.144;24.684;2024-01-30T00:48:23;101242.72;;;4.57;69.30
22753;BME280;11543;43.144;24.684;2024-01-30T00:50:48;101225.16;;;4.53;69.59
22753;BME280;11543;43.144;24.684;2024-01-30T00:53:14;101226.66;;;4.60;69.40
22753;BME280;11543;43.144;24.684;2024-01-30T00:55:39;101240.75;;;4.62;69.22
22753;BME280;11543;43.144;24.684;2024-01-30T00:58:05;101235.44;;;4.62;69.17
22753;BME280;11543;43.144;24.684;2024-01-30T01:00:30;101227.47;;;4.62;68.89
22753;BME280;11543;43.144;24.684;2024-01-30T01:02:57;101244.78;;;4.72;69.16
22753;BME280;11543;43.144;24.684;2024-01-30T01:05:23;101236.06;;;4.68;69.21
22753;BME280;11543;43.144;24.684;2024-01-30T01:07:49;101224.78;;;4.62;68.47
22753;BME280;11543;43.144;24.684;2024-01-30T01:10:15;101233.47;;;4.67;68.93
22753;BME280;11543;43.144;24.684;2024-01-30T01:12:41;101246.41;;;4.76;68.83
22753;BME280;11543;43.144;24.684;2024-01-30T01:15:07;101231.50;;;4.72;69.16
22753;BME280;11543;43.144;24.684;2024-01-30T01:17:35;101243.63;;;4.79;69.27
22753;BME280;11543;43.144;24.684;2024-01-30T01:20:01;101243.75;;;4.76;68.70
22753;BME280;11543;43.144;24.684;2024-01-30T01:22:27;101190.03;;;4.44;68.75
22753;BME280;11543;43.144;24.684;2024-01-30T01:24:53;101233.34;;;4.70;69.31
22753;BME280;11543;43.144;24.684;2024-01-30T01:27:18;101213.59;;;4.54;69.31
22753;BME280;11543;43.144;24.684;2024-01-30T01:29:43;101214.53;;;4.53;69.06
22753;BME280;11543;43.144;24.684;2024-01-30T01:32:09;101214.41;;;4.56;69.04
22753;BME280;11543;43.144;24.684;2024-01-30T01:34:34;101216.13;;;4.57;68.54
22753;BME280;11543;43.144;24.684;2024-01-30T01:37:00;101216.94;;;4.59;69.05
22753;BME280;11543;43.144;24.684;2024-01-30T01:39:25;101199.56;;;4.50;68.83
22753;BME280;11543;43.144;24.684;2024-01-30T01:41:51;101222.94;;;4.64;68.81
22753;BME280;11543;43.144;24.684;2024-01-30T01:44:18;101240.75;;;4.62;68.89
22753;BME280;11543;43.144;24.684;2024-01-30T01:46:44;101194.16;;;4.28;68.92
22753;BME280;11543;43.144;24.684;2024-01-30T01:49:09;101190.91;;;4.20;69.34
22753;BME280;11543;43.144;24.684;2024-01-30T01:51:36;101228.03;;;4.46;69.50
22753;BME280;11543;43.144;24.684;2024-01-30T01:54:04;101227.41;;;4.40;69.36
22753;BME280;11543;43.144;24.684;2024-01-30T01:56:30;101226.03;;;4.28;69.50
22753;BME280;11543;43.144;24.684;2024-01-30T01:59:00;101191.38;;;4.08;69.64
22753;BME280;11543;43.144;24.684;2024-01-30T02:01:28;101222.81;;;4.20;69.75
22753;BME280;11543;43.144;24.684;2024-01-30T02:03:54;101202.44;;;3.96;69.76
22753;BME280;11543;43.144;24.684;2024-01-30T02:06:20;101209.72;;;3.91;69.99
22753;BME280;11543;43.144;24.684;2024-01-30T02:08:45;101218.00;;;3.81;70.04
22753;BME280;11543;43.144;24.684;2024-01-30T02:11:11;101213.03;;;3.72;69.90
22753;BME280;11543;43.144;24.684;2024-01-30T02:13:36;101222.50;;;3.79;70.61
22753;BME280;11543;43.144;24.684;2024-01-30T02:16:02;101188.59;;;3.63;70.57
22753;BME280;11543;43.144;24.684;2024-01-30T02:18:28;101183.94;;;3.69;70.29
22753;BME280;11543;43.144;24.684;2024-01-30T02:20:56;101223.91;;;3.90;70.77
22753;BME280;11543;43.144;24.684;2024-01-30T02:23:27;101215.16;;;3.88;70.86
22753;BME280;11543;43.144;24.684;2024-01-30T02:25:53;101215.16;;;3.88;71.02
22753;BME280;11543;43.144;24.684;2024-01-30T02:28:19;101216.34;;;3.79;70.80
22753;BME280;11543;43.144;24.684;2024-01-30T02:30:46;101230.09;;;3.90;70.79
22753;BME280;11543;43.144;24.684;2024-01-30T02:33:12;101216.94;;;3.87;71.04
22753;BME280;11543;43.144;24.684;2024-01-30T02:35:37;101233.56;;;3.92;71.06
22753;BME280;11543;43.144;24.684;2024-01-30T02:38:03;101223.22;;;3.84;71.16
22753;BME280;11543;43.144;24.684;2024-01-30T02:40:29;101227.59;;;3.86;70.95
22753;BME280;11543;43.144;24.684;2024-01-30T02:42:55;101231.28;;;3.81;70.90
22753;BME280;11543;43.144;24.684;2024-01-30T02:45:21;101238.34;;;3.82;71.03
22753;BME280;11543;43.144;24.684;2024-01-30T02:47:47;101239.31;;;3.80;71.14
22753;BME280;11543;43.144;24.684;2024-01-30T02:50:12;101211.03;;;3.54;71.06
22753;BME280;11543;43.144;24.684;2024-01-30T02:52:38;101234.53;;;3.65;71.35
22753;BME280;11543;43.144;24.684;2024-01-30T02:55:04;101188.66;;;3.35;71.36
22753;BME280;11543;43.144;24.684;2024-01-30T02:57:29;101221.75;;;3.51;71.67
22753;BME280;11543;43.144;24.684;2024-01-30T02:59:55;101214.06;;;3.42;71.79
22753;BME280;11543;43.144;24.684;2024-01-30T03:02:20;101188.97;;;3.26;71.65
22753;BME280;11543;43.144;24.684;2024-01-30T03:04:46;101206.00;;;3.45;72.19
22753;BME280;11543;43.144;24.684;2024-01-30T03:07:12;101226.84;;;3.57;72.37
22753;BME280;11543;43.144;24.684;2024-01-30T03:09:37;101220.00;;;3.50;72.27
22753;BME280;11543;43.144;24.684;2024-01-30T03:12:04;101211.41;;;3.42;71.91
22753;BME280;11543;43.144;24.684;2024-01-30T03:14:31;101225.41;;;3.47;72.60
22753;BME280;11543;43.144;24.684;2024-01-30T03:16:57;101202.72;;;3.37;72.44
22753;BME280;11543;43.144;24.684;2024-01-30T03:19:23;101194.13;;;3.30;72.65
22753;BME280;11543;43.144;24.684;2024-01-30T03:21:48;101215.75;;;3.44;72.67
22753;BME280;11543;43.144;24.684;2024-01-30T03:24:14;101219.31;;;3.43;72.93
22753;BME280;11543;43.144;24.684;2024-01-30T03:26:39;101172.84;;;3.32;73.18
22753;BME280;11543;43.144;24.684;2024-01-30T03:29:05;101160.28;;;3.37;73.24
22753;BME280;11543;43.144;24.684;2024-01-30T03:31:30;101172.34;;;3.47;73.12
22753;BME280;11543;43.144;24.684;2024-01-30T03:33:56;101152.22;;;3.40;73.07
22753;BME280;11543;43.144;24.684;2024-01-30T03:36:21;101192.13;;;3.63;73.05
22753;BME280;11543;43.144;24.684;2024-01-30T03:38:47;101210.66;;;3.65;72.73
22753;BME280;11543;43.144;24.684;2024-01-30T03:41:12;101208.53;;;3.74;72.75
22753;BME280;11543;43.144;24.684;2024-01-30T03:43:38;101199.66;;;3.75;72.25
22753;BME280;11543;43.144;24.684;2024-01-30T03:46:03;101204.63;;;3.84;72.38
22753;BME280;11543;43.144;24.684;2024-01-30T03:48:29;101191.53;;;3.80;72.19
22753;BME280;11543;43.144;24.684;2024-01-30T03:50:55;101193.91;;;3.88;72.11
22753;BME280;11543;43.144;24.684;2024-01-30T03:53:21;101202.22;;;4.02;72.11
22753;BME280;11543;43.144;24.684;2024-01-30T03:55:46;101203.63;;;4.12;71.75
22753;BME280;11543;43.144;24.684;2024-01-30T03:58:12;101206.16;;;4.15;71.43
22753;BME280;11543;43.144;24.684;2024-01-30T04:00:37;101188.94;;;4.02;71.11
22753;BME280;11543;43.144;24.684;2024-01-30T04:03:03;101197.25;;;3.93;71.43
22753;BME280;11543;43.144;24.684;2024-01-30T04:05:29;101203.66;;;3.87;71.24
22753;BME280;11543;43.144;24.684;2024-01-30T04:07:54;101191.75;;;3.74;71.56
22753;BME280;11543;43.144;24.684;2024-01-30T04:10:20;101178.41;;;3.75;72.14
22753;BME280;11543;43.144;24.684;2024-01-30T04:12:45;101208.47;;;4.01;71.79
22753;BME280;11543;43.144;24.684;2024-01-30T04:15:11;101165.84;;;3.80;71.41
22753;BME280;11543;43.144;24.684;2024-01-30T04:17:36;101229.00;;;4.21;70.98
22753;BME280;11543;43.144;24.684;2024-01-30T04:20:02;101206.16;;;4.15;70.92
22753;BME280;11543;43.144;24.684;2024-01-30T04:22:27;101216.22;;;4.30;70.69
22753;BME280;11543;43.144;24.684;2024-01-30T04:24:53;101208.47;;;4.24;71.25
22753;BME280;11543;43.144;24.684;2024-01-30T04:27:18;101189.41;;;4.13;70.41
22753;BME280;11543;43.144;24.684;2024-01-30T04:29:44;101220.41;;;4.37;70.45
22753;BME280;11543;43.144;24.684;2024-01-30T04:32:09;101221.91;;;4.44;70.11
22753;BME280;11543;43.144;24.684;2024-01-30T04:34:36;101201.09;;;4.32;69.87
22753;BME280;11543;43.144;24.684;2024-01-30T04:37:02;101223.66;;;4.45;70.21
22753;BME280;11543;43.144;24.684;2024-01-30T04:39:27;101204.47;;;4.37;69.64
22753;BME280;11543;43.144;24.684;2024-01-30T04:41:53;101221.81;;;4.47;69.96
22753;BME280;11543;43.144;24.684;2024-01-30T04:44:18;101220.31;;;4.40;69.63
22753;BME280;11543;43.144;24.684;2024-01-30T04:46:44;101204.78;;;4.28;69.99
22753;BME280;11543;43.144;24.684;2024-01-30T04:49:10;101214.59;;;4.26;69.89
22753;BME280;11543;43.144;24.684;2024-01-30T04:51:37;101233.09;;;4.29;69.86
22753;BME280;11543;43.144;24.684;2024-01-30T04:54:02;101234.94;;;4.27;70.19
22753;BME280;11543;43.144;24.684;2024-01-30T04:56:28;101235.16;;;4.21;70.24
22753;BME280;11543;43.144;24.684;2024-01-30T04:58:53;101220.81;;;4.02;70.17
22753;BME280;11543;43.144;24.684;2024-01-30T05:01:19;101198.72;;;3.76;70.78
22753;BME280;11543;43.144;24.684;2024-01-30T05:03:47;101225.97;;;3.81;70.52
22753;BME280;11543;43.144;24.684;2024-01-30T05:06:12;101231.28;;;3.81;70.70
22753;BME280;11543;43.144;24.684;2024-01-30T05:08:38;101244.84;;;3.74;70.76
22753;BME280;11543;43.144;24.684;2024-01-30T05:11:05;101229.50;;;3.57;71.34
22753;BME280;11543;43.144;24.684;2024-01-30T05:13:31;101243.88;;;3.76;71.83
22753;BME280;11543;43.144;24.684;2024-01-30T05:15:57;101239.97;;;3.87;71.92
22753;BME280;11543;43.144;24.684;2024-01-30T05:18:23;101250.59;;;3.87;71.64
22753;BME280;11543;43.144;24.684;2024-01-30T05:20:50;101217.41;;;3.73;72.03
22753;BME280;11543;43.144;24.684;2024-01-30T05:23:16;101241.81;;;3.84;71.87
22753;BME280;11543;43.144;24.684;2024-01-30T05:25:41;101210.50;;;3.69;71.80
22753;BME280;11543;43.144;24.684;2024-01-30T05:28:07;101250.59;;;3.87;71.69
22753;BME280;11543;43.144;24.684;2024-01-30T05:30:33;101235.09;;;3.74;71.83
22753;BME280;11543;43.144;24.684;2024-01-30T05:32:59;101249.06;;;3.79;71.62
22753;BME280;11543;43.144;24.684;2024-01-30T05:35:24;101236.81;;;3.75;71.71
22753;BME280;11543;43.144;24.684;2024-01-30T05:37:50;101245.53;;;3.79;71.90
22753;BME280;11543;43.144;24.684;2024-01-30T05:40:15;101249.06;;;3.79;71.74
22753;BME280;11543;43.144;24.684;2024-01-30T05:42:41;101237.84;;;3.71;71.59
22753;BME280;11543;43.144;24.684;2024-01-30T05:45:07;101234.06;;;3.78;71.91
22753;BME280;11543;43.144;24.684;2024-01-30T05:47:34;101222.50;;;3.79;71.78
22753;BME280;11543;43.144;24.684;2024-01-30T05:50:00;101207.41;;;3.81;71.52
22753;BME280;11543;43.144;24.684;2024-01-30T05:52:25;101213.19;;;3.93;72.00
22753;BME280;11543;43.144;24.684;2024-01-30T05:54:51;101235.63;;;4.09;71.43
22753;BME280;11543;43.144;24.684;2024-01-30T05:57:16;101238.16;;;4.12;71.41
22753;BME280;11543;43.144;24.684;2024-01-30T05:59:42;101240.53;;;4.20;71.38
22753;BME280;11543;43.144;24.684;2024-01-30T06:02:11;101245.69;;;4.24;71.13
22753;BME280;11543;43.144;24.684;2024-01-30T06:04:36;101245.69;;;4.24;71.17
22753;BME280;11543;43.144;24.684;2024-01-30T06:07:02;101236.78;;;4.25;70.81
22753;BME280;11543;43.144;24.684;2024-01-30T06:09:28;101239.56;;;4.22;70.74
22753;BME280;11543;43.144;24.684;2024-01-30T06:11:54;101243.59;;;4.32;70.96
22753;BME280;11543;43.144;24.684;2024-01-30T06:14:20;101236.69;;;4.28;70.49
22753;BME280;11543;43.144;24.684;2024-01-30T06:16:45;101252.44;;;4.34;70.68
22753;BME280;11543;43.144;24.684;2024-01-30T06:19:10;101251.50;;;4.35;70.55
22753;BME280;11543;43.144;24.684;2024-01-30T06:21:36;101230.28;;;4.34;70.50
22753;BME280;11543;43.144;24.684;2024-01-30T06:24:03;101250.34;;;4.42;70.41
22753;BME280;11543;43.144;24.684;2024-01-30T06:26:29;101236.56;;;4.31;70.09
22753;BME280;11543;43.144;24.684;2024-01-30T06:28:54;101251.16;;;4.44;70.19
22753;BME280;11543;43.144;24.684;2024-01-30T06:31:20;101248.78;;;4.37;70.35
22753;BME280;11543;43.144;24.684;2024-01-30T06:33:47;101240.03;;;4.33;69.96
22753;BME280;11543;43.144;24.684;2024-01-30T06:36:13;101253.19;;;4.38;70.08
22753;BME280;11543;43.144;24.684;2024-01-30T06:38:40;101254.03;;;4.38;70.18
22753;BME280;11543;43.144;24.684;2024-01-30T06:41:16;101217.03;;;4.09;70.19
22753;BME280;11543;43.144;24.684;2024-01-30T06:44:15;101253.66;;;4.24;69.93
22753;BME280;11543;43.144;24.684;2024-01-30T06:47:00;101245.69;;;4.24;70.53
22753;BME280;11543;43.144;24.684;2024-01-30T06:49:40;101257.81;;;4.31;70.97
22753;BME280;11543;43.144;24.684;2024-01-30T06:52:08;101245.78;;;4.21;71.09
22753;BME280;11543;43.144;24.684;2024-01-30T06:57:21;101233.88;;;4.08;71.39
22753;BME280;11543;43.144;24.684;2024-01-30T06:59:47;101248.19;;;4.04;71.33
22753;BME280;11543;43.144;24.684;2024-01-30T07:02:12;101223.88;;;3.91;71.32
22753;BME280;11543;43.144;24.684;2024-01-30T07:04:38;101222.19;;;3.89;71.47
22753;BME280;11543;43.144;24.684;2024-01-30T07:07:05;101264.09;;;4.05;71.76
22753;BME280;11543;43.144;24.684;2024-01-30T07:09:31;101254.50;;;4.01;71.96
22753;BME280;11543;43.144;24.684;2024-01-30T07:11:57;101262.28;;;4.06;72.08
22753;BME280;11543;43.144;24.684;2024-01-30T07:14:24;101248.19;;;4.04;72.55
22753;BME280;11543;43.144;24.684;2024-01-30T07:16:50;101246.25;;;4.09;72.46
22753;BME280;11543;43.144;24.684;2024-01-30T07:19:16;101243.81;;;4.03;72.12
22753;BME280;11543;43.144;24.684;2024-01-30T07:21:41;101241.38;;;3.97;72.32
22753;BME280;11543;43.144;24.684;2024-01-30T07:24:07;101241.97;;;4.05;72.60
22753;BME280;11543;43.144;24.684;2024-01-30T07:26:33;101261.63;;;4.24;72.34
22753;BME280;11543;43.144;24.684;2024-01-30T07:28:58;101257.13;;;4.26;72.25
22753;BME280;11543;43.144;24.684;2024-01-30T07:31:24;101244.06;;;4.20;72.34
22753;BME280;11543;43.144;24.684;2024-01-30T07:33:49;101233.50;;;4.19;71.86
22753;BME280;11543;43.144;24.684;2024-01-30T07:36:15;101237.25;;;4.13;71.94
22753;BME280;11543;43.144;24.684;2024-01-30T07:38:40;101235.41;;;4.15;71.68
22753;BME280;11543;43.144;24.684;2024-01-30T07:41:08;101242.34;;;4.19;71.91
22753;BME280;11543;43.144;24.684;2024-01-30T07:43:34;101235.16;;;4.21;71.53
22753;BME280;11543;43.144;24.684;2024-01-30T07:45:59;101258.44;;;4.39;71.08
22753;BME280;11543;43.144;24.684;2024-01-30T07:48:26;101263.69;;;4.41;71.24
22753;BME280;11543;43.144;24.684;2024-01-30T07:50:52;101269.66;;;4.47;70.74
22753;BME280;11543;43.144;24.684;2024-01-30T07:53:18;101245.97;;;4.41;71.01
22753;BME280;11543;43.144;24.684;2024-01-30T07:55:44;101251.00;;;4.49;70.36
22753;BME280;11543;43.144;24.684;2024-01-30T07:58:12;101272.06;;;4.54;70.73
22753;BME280;11543;43.144;24.684;2024-01-30T08:00:37;101264.78;;;4.59;70.80
22753;BME280;11543;43.144;24.684;2024-01-30T08:03:03;101255.09;;;4.58;70.39
22753;BME280;11543;43.144;24.684;2024-01-30T08:05:29;101258.56;;;4.60;70.70
22753;BME280;11543;43.144;24.684;2024-01-30T08:07:54;101243.69;;;4.54;70.43
22753;BME280;11543;43.144;24.684;2024-01-30T08:10:20;101260.91;;;4.67;70.41
22753;BME280;11543;43.144;24.684;2024-01-30T08:12:45;101260.16;;;4.64;70.34
22753;BME280;11543;43.144;24.684;2024-01-30T08:15:11;101251.63;;;4.56;70.65
22753;BME280;11543;43.144;24.684;2024-01-30T08:17:37;101249.88;;;4.55;70.29
22753;BME280;11543;43.144;24.684;2024-01-30T08:20:03;101272.66;;;4.62;70.61
22753;BME280;11543;43.144;24.684;2024-01-30T08:22:30;101247.63;;;4.44;70.48
22753;BME280;11543;43.144;24.684;2024-01-30T08:24:55;101259.19;;;4.43;70.62
22753;BME280;11543;43.144;24.684;2024-01-30T08:27:21;101283.97;;;4.43;70.55
22753;BME280;11543;43.144;24.684;2024-01-30T08:29:46;101249.16;;;4.26;70.63
22753;BME280;11543;43.144;24.684;2024-01-30T08:32:12;101253.88;;;4.18;70.82
22753;BME280;11543;43.144;24.684;2024-01-30T08:34:37;101282.66;;;4.30;70.23
22753;BME280;11543;43.144;24.684;2024-01-30T08:37:03;101267.06;;;4.21;70.76
22753;BME280;11543;43.144;24.684;2024-01-30T08:39:28;101280.13;;;4.27;71.28
22753;BME280;11543;43.144;24.684;2024-01-30T08:41:54;101261.75;;;4.21;70.80
22753;BME280;11543;43.144;24.684;2024-01-30T08:44:19;101275.50;;;4.32;71.30
22753;BME280;11543;43.144;24.684;2024-01-30T08:46:45;101280.63;;;4.38;70.78
22753;BME280;11543;43.144;24.684;2024-01-30T08:49:11;101263.31;;;4.27;70.96
22753;BME280;11543;43.144;24.684;2024-01-30T08:51:41;101274.50;;;4.36;71.08
22753;BME280;11543;43.144;24.684;2024-01-30T08:54:07;101248.41;;;4.23;70.70
22753;BME280;11543;43.144;24.684;2024-01-30T08:56:32;101274.31;;;4.41;70.79
22753;BME280;11543;43.144;24.684;2024-01-30T08:58:58;101282.41;;;4.38;70.87
22753;BME280;11543;43.144;24.684;2024-01-30T09:01:25;101268.31;;;4.36;70.74
22753;BME280;11543;43.144;24.684;2024-01-30T09:03:50;101267.22;;;4.41;70.73
22753;BME280;11543;43.144;24.684;2024-01-30T09:06:16;101277.69;;;4.46;70.96
22753;BME280;11543;43.144;24.684;2024-01-30T09:08:41;101257.28;;;4.46;71.10
22753;BME280;11543;43.144;24.684;2024-01-30T09:11:11;101272.44;;;4.68;70.36
22753;BME280;11543;43.144;24.684;2024-01-30T09:13:37;101285.50;;;4.74;70.45
22753;BME280;11543;43.144;24.684;2024-01-30T09:16:03;101286.19;;;4.79;70.11
22753;BME280;11543;43.144;24.684;2024-01-30T09:18:28;101260.97;;;4.66;69.90
22753;BME280;11543;43.144;24.684;2024-01-30T09:20:54;101284.09;;;4.87;69.72
22753;BME280;11543;43.144;24.684;2024-01-30T09:23:19;101264.66;;;4.85;69.62
22753;BME280;11543;43.144;24.684;2024-01-30T09:25:45;101283.38;;;5.05;69.48
22753;BME280;11543;43.144;24.684;2024-01-30T09:28:11;101277.25;;;5.03;69.28
22753;BME280;11543;43.144;24.684;2024-01-30T09:30:36;101241.41;;;4.90;69.20
22753;BME280;11543;43.144;24.684;2024-01-30T09:33:02;101267.66;;;4.99;69.18
22753;BME280;11543;43.144;24.684;2024-01-30T09:35:27;101245.13;;;4.86;68.62
22753;BME280;11543;43.144;24.684;2024-01-30T09:37:53;101274.94;;;4.94;68.38
22753;BME280;11543;43.144;24.684;2024-01-30T09:40:18;101250.44;;;4.86;68.25
22753;BME280;11543;43.144;24.684;2024-01-30T09:42:50;101267.28;;;5.08;68.57
22753;BME280;11543;43.144;24.684;2024-01-30T09:45:18;101235.59;;;5.02;68.66
22753;BME280;11543;43.144;24.684;2024-01-30T09:47:46;101250.94;;;5.18;68.66
22753;BME280;11543;43.144;24.684;2024-01-30T09:50:13;101270.53;;;5.38;68.60
22753;BME280;11543;43.144;24.684;2024-01-30T09:52:40;101267.81;;;5.40;68.15
22753;BME280;11543;43.144;24.684;2024-01-30T09:55:07;101257.28;;;5.37;67.55
22753;BME280;11543;43.144;24.684;2024-01-30T09:57:35;101264.47;;;5.35;67.09
22753;BME280;11543;43.144;24.684;2024-01-30T10:00:02;101260.88;;;5.36;67.08
22753;BME280;11543;43.144;24.684;2024-01-30T10:02:31;101237.56;;;5.19;66.74
22753;BME280;11543;43.144;24.684;2024-01-30T10:04:56;101253.81;;;5.35;66.84
22753;BME280;11543;43.144;24.684;2024-01-30T10:07:23;101249.41;;;5.34;66.62
22753;BME280;11543;43.144;24.684;2024-01-30T10:09:49;101251.81;;;5.40;66.66
22753;BME280;11543;43.144;24.684;2024-01-30T10:12:17;101232.53;;;5.35;66.32
22753;BME280;11543;43.144;24.684;2024-01-30T10:14:43;101229.91;;;5.33;65.94
22753;BME280;11543;43.144;24.684;2024-01-30T10:17:10;101248.09;;;5.44;65.75
22753;BME280;11543;43.144;24.684;2024-01-30T10:19:41;101233.25;;;5.38;64.99
22753;BME280;11543;43.144;24.684;2024-01-30T10:22:07;101251.44;;;5.49;64.97
22753;BME280;11543;43.144;24.684;2024-01-30T10:24:35;101226.81;;;5.44;65.10
22753;BME280;11543;43.144;24.684;2024-01-30T10:27:01;101241.63;;;5.71;65.16
22753;BME280;11543;43.144;24.684;2024-01-30T10:29:27;101217.56;;;5.73;65.55
22753;BME280;11543;43.144;24.684;2024-01-30T10:32:06;101219.41;;;5.93;65.13
22753;BME280;11543;43.144;24.684;2024-01-30T10:34:34;101227.78;;;6.04;65.13
22753;BME280;11543;43.144;24.684;2024-01-30T10:37:11;101231.59;;;6.19;65.03
22753;BME280;11543;43.144;24.684;2024-01-30T10:39:43;101240.69;;;6.33;64.63
22753;BME280;11543;43.144;24.684;2024-01-30T10:42:18;101235.88;;;6.42;65.00
22753;BME280;11543;43.144;24.684;2024-01-30T10:44:57;101227.59;;;6.48;64.53
22753;BME280;11543;43.144;24.684;2024-01-30T10:47:32;101224.66;;;6.54;63.65
22753;BME280;11543;43.144;24.684;2024-01-30T10:50:02;101207.06;;;6.50;62.60
22753;BME280;11543;43.144;24.684;2024-01-30T10:52:31;101195.47;;;6.51;61.85
22753;BME280;11543;43.144;24.684;2024-01-30T10:54:58;101209.66;;;6.70;61.02
22753;BME280;11543;43.144;24.684;2024-01-30T10:57:24;101173.97;;;6.54;60.67
22753;BME280;11543;43.144;24.684;2024-01-30T10:59:51;101199.47;;;6.78;60.67
22753;BME280;11543;43.144;24.684;2024-01-30T11:02:18;101195.44;;;6.88;61.04
22753;BME280;11543;43.144;24.684;2024-01-30T11:04:48;101203.50;;;7.06;60.73
22753;BME280;11543;43.144;24.684;2024-01-30T11:07:17;101184.03;;;7.03;60.44
22753;BME280;11543;43.144;24.684;2024-01-30T11:12:27;101163.31;;;7.09;59.34
22753;BME280;11543;43.144;24.684;2024-01-30T11:15:09;101182.81;;;7.28;58.83
22753;BME280;11543;43.144;24.684;2024-01-30T11:20:19;101189.25;;;7.41;58.25
22753;BME280;11543;43.144;24.684;2024-01-30T11:22:50;101173.41;;;7.38;58.14
22753;BME280;11543;43.144;24.684;2024-01-30T11:25:17;101190.44;;;7.53;57.77
22753;BME280;11543;43.144;24.684;2024-01-30T11:27:45;101188.47;;;7.56;57.66
22753;BME280;11543;43.144;24.684;2024-01-30T11:30:21;101188.16;;;7.62;57.25
22753;BME280;11543;43.144;24.684;2024-01-30T11:33:01;101168.69;;;7.60;56.90
22753;BME280;11543;43.144;24.684;2024-01-30T11:35:31;101180.78;;;7.67;56.84
22753;BME280;11543;43.144;24.684;2024-01-30T11:37:57;101168.38;;;7.66;56.35
22753;BME280;11543;43.144;24.684;2024-01-30T11:40:24;101159.72;;;7.61;56.35
22753;BME280;11543;43.144;24.684;2024-01-30T11:42:53;101158.31;;;7.54;53.74
22753;BME280;11543;43.144;24.684;2024-01-30T11:45:19;101165.38;;;7.55;53.14
22753;BME280;11543;43.144;24.684;2024-01-30T11:47:45;101146.69;;;7.38;52.68
22753;BME280;11543;43.144;24.684;2024-01-30T11:50:11;101143.88;;;7.41;53.26
22753;BME280;11543;43.144;24.684;2024-01-30T11:52:36;101160.03;;;7.55;53.19
22753;BME280;11543;43.144;24.684;2024-01-30T11:55:02;101119.59;;;7.28;53.28
22753;BME280;11543;43.144;24.684;2024-01-30T11:57:29;101148.25;;;7.42;53.30
22753;BME280;11543;43.144;24.684;2024-01-30T11:59:54;101136.00;;;7.38;52.96
22753;BME280;11543;43.144;24.684;2024-01-30T12:02:20;101147.63;;;7.37;51.85
22753;BME280;11543;43.144;24.684;2024-01-30T12:04:45;101149.59;;;7.33;52.09
22753;BME280;11543;43.144;24.684;2024-01-30T12:07:11;101147.88;;;7.32;52.31
22753;BME280;11543;43.144;24.684;2024-01-30T12:09:37;101130.03;;;7.16;52.82
22753;BME280;11543;43.144;24.684;2024-01-30T12:12:03;101119.50;;;7.13;52.73
22753;BME280;11543;43.144;24.684;2024-01-30T12:14:28;101127.22;;;7.19;52.18
22753;BME280;11543;43.144;24.684;2024-01-30T12:16:54;101117.00;;;7.10;52.36
22753;BME280;11543;43.144;24.684;2024-01-30T12:19:24;101113.53;;;7.08;52.87
22753;BME280;11543;43.144;24.684;2024-01-30T12:21:59;101122.09;;;7.14;52.26
22753;BME280;11543;43.144;24.684;2024-01-30T12:24:28;101128.63;;;7.09;52.65
22753;BME280;11543;43.144;24.684;2024-01-30T12:26:59;101106.00;;;6.98;52.23
22753;BME280;11543;43.144;24.684;2024-01-30T12:29:25;101120.75;;;7.06;52.30
22753;BME280;11543;43.144;24.684;2024-01-30T12:31:54;101094.03;;;6.88;52.46
22753;BME280;11543;43.144;24.684;2024-01-30T12:34:20;101112.91;;;7.02;52.32
22753;BME280;11543;43.144;24.684;2024-01-30T12:36:47;101095.47;;;6.95;52.70
22753;BME280;11543;43.144;24.684;2024-01-30T12:39:14;101115.44;;;7.06;51.73
22753;BME280;11543;43.144;24.684;2024-01-30T12:41:40;101114.56;;;7.05;52.30
22753;BME280;11543;43.144;24.684;2024-01-30T12:44:06;101078.16;;;6.85;52.28
22753;BME280;11543;43.144;24.684;2024-01-30T12:46:34;101097.13;;;6.98;52.83
22753;BME280;11543;43.144;24.684;2024-01-30T12:48:59;101070.16;;;6.85;52.74
22753;BME280;11543;43.144;24.684;2024-01-30T12:51:25;101080.59;;;6.90;52.42
22753;BME280;11543;43.144;24.684;2024-01-30T12:53:51;101107.56;;;7.02;52.56
22753;BME280;11543;43.144;24.684;2024-01-30T12:56:16;101104.13;;;7.00;51.90